YBCG Airport Information

Runway Information
Runway 14 Length 6699 ft width 148 ft
Elevation 21 ft Threshold 0 ft Heading 150
Runway 32 Length 6699 ft Width 148 ft
Elevation 13 ft Threshold 0 ft Heading 330
Runway 17 Length 1909 ft width 59 ft
Elevation 17 ft Threshold 0 ft Heading 184
Runway 35 Length 1909 ft Width 59 ft
Elevation 13 ft Threshold 0 ft Heading 4
Airport Frequencies
Type APP Name BRISBANE A Frequency 123.5 MHZ
Type ATIS Name ATIS Frequency 112.3 MHZ
Type CTAF Name CTAF Frequency 118.7 MHZ
Type FSS Name BRISBANE R Frequency 119.5 MHZ
Type GCCD Name GND Frequency 121.8 MHZ
Type TWR Name TWR Frequency 118.7 MHZ
Airport Navaids
Type VOR-DME Name Coolangatta Frequency 112300 KHZ
Type NDB Name Coolangatta Frequency 278 KHZ
Airport Weather Information & NOTAM
ADDS - METARS form results

(1418 UTC 24 July 2021)
Data provider http://aviationweather.gov/metar/data/
 
METAR text: YBCG 241400Z AUTO 28001KT 9999 // NCD 11/05 Q1010
Conditions at: YBCG (COOLANGATTA AWS , AU) observed 1400 UTC 24 July 2021
Temperature: 11.0°C (52°F)
Dewpoint: 5.0°C (41°F) [RH = 66%]
Pressure (altimeter): 29.82 inches Hg (1010.0 mb)
Winds: from the W (280 degrees) at 1 MPH (1 knots; 0.5 m/s)
Visibility: 6 or more miles (10+ km)
Ceiling: at least 12,000 feet AGL
Clouds: sky clear below 12,000 feet AGL
Weather: no significant weather observed at this time

METAR text: YBCG 241330Z AUTO 32006KT 9999 // NCD 14/05 Q1010 RF00.0/000.0
Conditions at: YBCG (COOLANGATTA AWS , AU) observed 1330 UTC 24 July 2021
Temperature: 14.0°C (57°F)
Dewpoint: 5.0°C (41°F) [RH = 55%]
Pressure (altimeter): 29.82 inches Hg (1010.0 mb)
Winds: from the NW (320 degrees) at 7 MPH (6 knots; 3.1 m/s)
Visibility: 6 or more miles (10+ km)
Ceiling: at least 12,000 feet AGL
Clouds: sky clear below 12,000 feet AGL
Weather: no significant weather observed at this time

Forecast for: YBCG (COOLANGATTA AWS , AU)
Text: TAF YBCG 241402Z 2415/2512 32006KT CAVOK
Forecast period: 1500 UTC 24 July 2021 to 0200 UTC 25 July 2021
Forecast type: FROM: standard forecast or significant change
Winds: from the NW (320 degrees) at 7 MPH (6 knots; 3.1 m/s)
Visibility: 6 or more miles (10+ km)
Ceiling: unknown
Clouds: missing
Weather: NSW  (no significant weather)
Text: FM250200 24014KT CAVOK
Forecast period: 0200 to 1200 UTC 25 July 2021
Forecast type: FROM: standard forecast or significant change
Winds: from the WSW (240 degrees) at 16 MPH (14 knots; 7.2 m/s)
Visibility: 6 or more miles (10+ km)
Ceiling: unknown
Clouds: missing
Weather: NSW  (no significant weather)